createdAt,value
2018-11-27T00:04:58.442Z,57.30
2018-11-27T00:10:01.786Z,53.20
2018-11-27T00:15:25.896Z,51.93
2018-11-27T00:20:29.302Z,49.77
2018-11-27T00:25:32.658Z,47.40
2018-11-27T00:30:36.064Z,56.77
2018-11-27T00:35:39.418Z,47.20
2018-11-27T00:40:49.960Z,48.43
2018-11-27T00:45:53.832Z,45.63
2018-11-27T00:50:57.203Z,49.77
2018-11-27T00:56:01.001Z,44.00
2018-11-27T01:01:04.518Z,41.27
2018-11-27T01:06:07.935Z,46.67
2018-11-27T01:11:11.301Z,47.33
2018-11-27T01:16:14.644Z,42.27
2018-11-27T01:21:18.160Z,53.30
2018-11-27T01:26:21.618Z,37.80
2018-11-27T01:31:24.985Z,40.33
2018-11-27T01:36:28.419Z,46.63
2018-11-27T01:46:40.873Z,41.80
2018-11-27T01:51:44.583Z,41.40
2018-11-27T01:56:47.987Z,40.00
2018-11-27T02:01:51.350Z,44.13
2018-11-27T02:06:54.719Z,36.13
2018-11-27T02:11:58.163Z,43.33
2018-11-27T02:17:01.589Z,34.17
2018-11-27T02:22:04.952Z,38.77
2018-11-27T02:27:08.323Z,36.00
2018-11-27T02:32:11.725Z,36.63
2018-11-27T02:37:15.100Z,37.87
2018-11-27T02:42:18.600Z,36.13
2018-11-27T02:52:45.611Z,37.57
2018-11-27T02:57:48.991Z,39.00
2018-11-27T03:02:52.385Z,35.83
2018-11-27T03:07:55.742Z,38.53
2018-11-27T03:12:59.112Z,33.97
2018-11-27T03:18:02.494Z,38.03
2018-11-27T03:23:06.621Z,38.03
2018-11-27T03:28:10.007Z,38.30
2018-11-27T03:33:13.462Z,39.47
2018-11-27T03:38:16.858Z,43.50
2018-11-27T03:43:20.273Z,33.33
2018-11-27T03:48:23.752Z,35.00
2018-11-27T03:53:27.194Z,31.53
2018-11-27T03:58:30.802Z,35.53
2018-11-27T04:03:34.215Z,32.30
2018-11-27T04:08:37.615Z,34.87
2018-11-27T04:13:41.026Z,31.40
2018-11-27T04:18:44.386Z,28.03
2018-11-27T04:23:47.759Z,29.70
2018-11-27T04:28:51.166Z,30.83
2018-11-27T04:33:54.523Z,33.20
2018-11-27T04:38:57.883Z,30.23
2018-11-27T04:44:01.329Z,33.67
2018-11-27T04:49:04.954Z,32.97
2018-11-27T04:54:08.325Z,35.07
2018-11-27T04:59:11.727Z,26.23
2018-11-27T05:04:15.122Z,37.40
2018-11-27T05:09:18.524Z,36.17
2018-11-27T05:14:21.917Z,31.43
2018-11-27T05:19:25.268Z,29.57
2018-11-27T05:24:28.708Z,35.53
2018-11-27T05:29:32.067Z,33.43
2018-11-27T05:39:44.765Z,36.53
2018-11-27T05:44:48.185Z,35.80
2018-11-27T05:49:51.613Z,32.60
2018-11-27T05:54:55.033Z,30.23
2018-11-27T05:59:58.411Z,29.63
2018-11-27T06:05:01.785Z,20.27
2018-11-27T06:10:05.469Z,24.60
2018-11-27T06:15:19.452Z,28.63
2018-11-27T06:20:23.242Z,27.50
2018-11-27T06:25:27.783Z,26.00
2018-11-27T06:30:32.202Z,28.87
2018-11-27T06:35:39.750Z,31.23
2018-11-27T06:40:43.305Z,31.83
2018-11-27T06:45:46.698Z,27.10
2018-11-27T06:50:50.090Z,30.97
2018-11-27T06:55:53.460Z,33.77
2018-11-27T07:00:56.816Z,29.27
2018-11-27T07:06:00.254Z,32.67
2018-11-27T07:11:03.539Z,33.70
2018-11-27T07:16:06.936Z,36.37
2018-11-27T07:21:10.258Z,35.70
2018-11-27T07:26:13.688Z,37.40
2018-11-27T07:31:17.620Z,33.83
2018-11-27T07:36:21.118Z,32.87
2018-11-27T07:41:24.479Z,31.60
2018-11-27T07:46:27.883Z,36.57
2018-11-27T07:51:31.240Z,31.97
2018-11-27T07:56:34.640Z,37.07
2018-11-27T08:01:38.043Z,33.53
2018-11-27T08:06:41.456Z,35.57
2018-11-27T08:11:44.849Z,38.10
2018-11-27T08:16:48.257Z,35.70
2018-11-27T08:21:51.644Z,35.80
2018-11-27T08:26:55.051Z,34.33
2018-11-27T08:31:58.462Z,32.43
2018-11-27T08:37:01.887Z,32.27
2018-11-27T08:47:14.819Z,34.67
2018-11-27T08:52:18.172Z,36.83
2018-11-27T08:57:21.527Z,32.33
2018-11-27T09:02:25.003Z,35.83
2018-11-27T09:07:28.391Z,31.50
2018-11-27T09:12:31.837Z,33.10
2018-11-27T09:17:35.193Z,37.97
2018-11-27T09:22:38.879Z,43.70
2018-11-27T09:27:42.329Z,38.77
2018-11-27T09:32:45.716Z,52.47
2018-11-27T09:37:49.067Z,47.33
2018-11-27T09:42:52.456Z,26.93
2018-11-27T09:47:59.379Z,23.57
2018-11-27T09:53:02.737Z,35.97
2018-11-27T09:58:06.756Z,31.00
2018-11-27T10:03:14.636Z,28.93
2018-11-27T10:08:17.982Z,28.17
2018-11-27T10:13:21.323Z,26.73
2018-11-27T10:18:24.665Z,29.00
2018-11-27T10:23:28.066Z,26.63
2018-11-27T10:28:32.161Z,31.10
2018-11-27T10:33:34.871Z,25.73
2018-11-27T10:38:39.577Z,29.57
2018-11-27T10:43:42.969Z,25.97
2018-11-27T10:48:46.497Z,27.10
2018-11-27T10:53:49.813Z,31.73
2018-11-27T10:58:53.415Z,29.87
2018-11-27T11:03:56.755Z,27.77
2018-11-27T11:09:00.435Z,27.30
2018-11-27T11:14:03.831Z,29.00
2018-11-27T11:19:07.572Z,28.50
2018-11-27T11:24:10.942Z,23.20
2018-11-27T11:29:14.441Z,23.67
2018-11-27T11:34:17.791Z,25.90
2018-11-27T11:39:21.139Z,25.63
2018-11-27T11:44:24.557Z,23.17
2018-11-27T11:49:27.916Z,22.40
2018-11-27T11:54:31.275Z,25.83
2018-11-27T11:59:34.658Z,24.17
2018-11-27T12:04:38.013Z,23.17
2018-11-27T12:09:41.398Z,25.67
2018-11-27T12:14:44.788Z,23.53
2018-11-27T12:19:48.179Z,22.17
2018-11-27T12:24:51.519Z,23.30
2018-11-27T12:29:54.920Z,22.33
2018-11-27T12:34:58.258Z,23.90
2018-11-27T12:40:01.608Z,27.40
2018-11-27T12:45:05.364Z,26.57
2018-11-27T12:50:47.489Z,22.67
2018-11-27T12:55:51.284Z,27.20
2018-11-27T13:00:54.650Z,26.97
2018-11-27T13:05:58.001Z,21.80
2018-11-27T13:11:01.333Z,20.40
2018-11-27T13:16:04.698Z,29.13
2018-11-27T13:21:08.111Z,27.60
2018-11-27T13:26:11.625Z,23.50
2018-11-27T13:31:15.605Z,24.87
2018-11-27T13:36:19.001Z,24.13
2018-11-27T13:41:22.373Z,25.33
2018-11-27T13:46:50.713Z,23.93
2018-11-27T13:51:54.064Z,27.20
2018-11-27T13:56:57.428Z,19.47
2018-11-27T14:02:00.875Z,24.80
2018-11-27T14:07:04.314Z,24.40
2018-11-27T14:12:07.675Z,29.57
2018-11-27T14:22:25.088Z,24.67
2018-11-27T14:27:23.775Z,23.33
2018-11-27T14:32:27.201Z,27.17
2018-11-27T14:37:30.550Z,29.50
2018-11-27T14:42:34.027Z,25.63
2018-11-27T14:47:37.323Z,26.73
2018-11-27T14:52:40.714Z,23.57
2018-11-27T14:57:44.058Z,27.97
2018-11-27T15:02:47.467Z,22.90
2018-11-27T15:07:50.820Z,25.80
2018-11-27T15:12:54.117Z,27.40
2018-11-27T15:17:57.630Z,29.80
2018-11-27T15:23:01.026Z,30.90
2018-11-27T15:33:18.519Z,35.20
2018-11-27T15:38:16.742Z,36.00
2018-11-27T15:43:20.125Z,35.17
2018-11-27T15:48:23.557Z,30.13
2018-11-27T15:58:36.221Z,38.60
2018-11-27T16:03:39.537Z,33.70
2018-11-27T16:08:42.982Z,36.87
2018-11-27T16:13:49.105Z,36.70
2018-11-27T16:23:59.435Z,47.00
2018-11-27T16:44:30.135Z,48.83
2018-11-27T16:49:33.448Z,36.60
2018-11-27T16:54:56.226Z,37.07
2018-11-27T17:00:12.336Z,39.17
2018-11-27T17:10:25.324Z,38.07
2018-11-27T17:20:57.563Z,41.70
2018-11-27T17:31:29.537Z,42.30
2018-11-27T17:36:33.442Z,78.10
2018-11-27T17:46:45.602Z,41.90
2018-11-27T17:57:17.874Z,41.20
2018-11-27T18:07:36.395Z,45.03
2018-11-27T18:17:49.391Z,39.03
2018-11-27T18:23:05.485Z,40.50
2018-11-27T18:28:24.088Z,50.13
2018-11-27T18:33:39.966Z,46.07
2018-11-27T18:38:56.205Z,44.43
2018-11-27T18:44:12.612Z,37.57
2018-11-27T18:49:28.931Z,46.17
2018-11-27T18:54:44.294Z,38.77
2018-11-27T19:00:05.178Z,44.73
2018-11-27T19:05:20.463Z,44.47
2018-11-27T19:15:57.133Z,51.20
2018-11-27T19:36:40.492Z,43.93
2018-11-27T19:52:01.495Z,52.00
2018-11-27T20:02:14.704Z,44.97
2018-11-27T20:12:27.149Z,47.23
2018-11-27T20:22:39.157Z,43.73
2018-11-27T20:32:56.532Z,49.63
2018-11-27T20:38:01.575Z,54.97
2018-11-27T20:48:18.284Z,52.27
2018-11-27T21:03:41.247Z,50.83
2018-11-27T21:13:53.652Z,51.93
2018-11-27T21:24:07.221Z,45.10
2018-11-27T21:39:28.455Z,73.90
2018-11-27T21:49:40.539Z,55.10
2018-11-27T22:05:02.999Z,46.43
2018-11-27T22:10:27.858Z,45.07
2018-11-27T22:15:50.780Z,44.63
2018-11-27T22:20:54.193Z,44.70
2018-11-27T22:25:57.617Z,50.90
2018-11-27T22:31:01.025Z,39.00
2018-11-27T22:36:04.374Z,46.60
2018-11-27T22:46:16.600Z,41.20
2018-11-27T22:51:20.275Z,44.30
2018-11-27T22:56:23.650Z,42.93
2018-11-27T23:01:27.016Z,50.10
2018-11-27T23:06:30.522Z,43.07
2018-11-27T23:11:33.920Z,46.37
2018-11-27T23:16:37.284Z,43.70
2018-11-27T23:21:40.657Z,50.53
2018-11-27T23:26:44.018Z,44.00
2018-11-27T23:31:47.389Z,45.60
2018-11-27T23:36:50.812Z,47.63
2018-11-27T23:42:13.561Z,51.70
2018-11-27T23:47:16.977Z,50.93
2018-11-27T23:52:20.414Z,53.50
2018-11-27T23:57:23.838Z,45.80
